sensor_id;sensor_type;location;lat;lon;timestamp;temperature;humidity
50586;DHT22;36542;51.700;8.846;2023-03-14T00:01:50;10.30;99.90
50586;DHT22;36542;51.700;8.846;2023-03-14T00:04:16;10.30;99.90
50586;DHT22;36542;51.700;8.846;2023-03-14T00:06:41;10.40;99.90
50586;DHT22;36542;51.700;8.846;2023-03-14T00:09:07;10.60;99.90
50586;DHT22;36542;51.700;8.846;2023-03-14T00:11:33;10.50;99.90
50586;DHT22;36542;51.700;8.846;2023-03-14T00:13:58;10.50;99.90
50586;DHT22;36542;51.700;8.846;2023-03-14T00:16:25;10.50;99.90
50586;DHT22;36542;51.700;8.846;2023-03-14T00:18:50;10.50;99.90
50586;DHT22;36542;51.700;8.846;2023-03-14T00:21:16;10.50;99.90
50586;DHT22;36542;51.700;8.846;2023-03-14T00:23:42;10.60;99.90
50586;DHT22;36542;51.700;8.846;2023-03-14T00:26:10;10.50;99.90
50586;DHT22;36542;51.700;8.846;2023-03-14T00:28:36;10.50;99.90
50586;DHT22;36542;51.700;8.846;2023-03-14T00:31:06;10.50;99.90
50586;DHT22;36542;51.700;8.846;2023-03-14T00:33:32;10.50;99.90
50586;DHT22;36542;51.700;8.846;2023-03-14T00:36:06;10.50;99.90
50586;DHT22;36542;51.700;8.846;2023-03-14T00:38:34;10.50;99.90
50586;DHT22;36542;51.700;8.846;2023-03-14T00:41:03;10.50;99.90
50586;DHT22;36542;51.700;8.846;2023-03-14T00:43:29;10.40;99.90
50586;DHT22;36542;51.700;8.846;2023-03-14T00:45:54;10.40;99.90
50586;DHT22;36542;51.700;8.846;2023-03-14T00:48:20;10.40;99.90
50586;DHT22;36542;51.700;8.846;2023-03-14T00:50:46;10.30;99.90
50586;DHT22;36542;51.700;8.846;2023-03-14T00:53:12;10.20;99.90
50586;DHT22;36542;51.700;8.846;2023-03-14T00:55:39;10.10;99.90
50586;DHT22;36542;51.700;8.846;2023-03-14T00:58:05;10.10;99.90
50586;DHT22;36542;51.700;8.846;2023-03-14T01:00:31;10.10;99.90
50586;DHT22;36542;51.700;8.846;2023-03-14T01:02:57;10.10;99.90
50586;DHT22;36542;51.700;8.846;2023-03-14T01:05:23;10.00;99.90
50586;DHT22;36542;51.700;8.846;2023-03-14T01:07:48;10.00;99.90
50586;DHT22;36542;51.700;8.846;2023-03-14T01:10:14;10.20;99.90
50586;DHT22;36542;51.700;8.846;2023-03-14T01:12:40;10.20;99.90
50586;DHT22;36542;51.700;8.846;2023-03-14T01:15:06;10.20;99.90
50586;DHT22;36542;51.700;8.846;2023-03-14T01:17:32;10.30;99.90
50586;DHT22;36542;51.700;8.846;2023-03-14T01:19:57;10.30;99.90
50586;DHT22;36542;51.700;8.846;2023-03-14T01:22:23;10.30;99.90
50586;DHT22;36542;51.700;8.846;2023-03-14T01:24:48;10.30;99.90
50586;DHT22;36542;51.700;8.846;2023-03-14T01:27:14;10.30;99.90
50586;DHT22;36542;51.700;8.846;2023-03-14T01:29:39;10.30;99.90
50586;DHT22;36542;51.700;8.846;2023-03-14T01:32:05;10.30;99.90
50586;DHT22;36542;51.700;8.846;2023-03-14T01:34:30;10.30;99.90
50586;DHT22;36542;51.700;8.846;2023-03-14T01:36:56;10.30;99.90
50586;DHT22;36542;51.700;8.846;2023-03-14T01:39:21;10.30;99.90
50586;DHT22;36542;51.700;8.846;2023-03-14T01:41:47;10.30;99.90
50586;DHT22;36542;51.700;8.846;2023-03-14T01:44:13;10.30;99.90
50586;DHT22;36542;51.700;8.846;2023-03-14T01:46:42;10.30;99.90
50586;DHT22;36542;51.700;8.846;2023-03-14T01:49:19;10.30;99.90
50586;DHT22;36542;51.700;8.846;2023-03-14T01:52:02;10.30;99.90
50586;DHT22;36542;51.700;8.846;2023-03-14T01:54:36;10.40;99.90
50586;DHT22;36542;51.700;8.846;2023-03-14T01:57:13;10.40;99.90
50586;DHT22;36542;51.700;8.846;2023-03-14T01:59:40;10.40;99.90
50586;DHT22;36542;51.700;8.846;2023-03-14T02:02:09;10.40;99.90
50586;DHT22;36542;51.700;8.846;2023-03-14T02:04:38;10.50;99.90
50586;DHT22;36542;51.700;8.846;2023-03-14T02:07:25;10.50;99.90
50586;DHT22;36542;51.700;8.846;2023-03-14T02:09:56;10.40;99.90
50586;DHT22;36542;51.700;8.846;2023-03-14T02:12:22;10.30;99.90
50586;DHT22;36542;51.700;8.846;2023-03-14T02:14:47;10.30;99.90
50586;DHT22;36542;51.700;8.846;2023-03-14T02:17:18;10.30;99.90
50586;DHT22;36542;51.700;8.846;2023-03-14T02:20:36;10.30;99.90
50586;DHT22;36542;51.700;8.846;2023-03-14T02:23:04;10.30;99.90
50586;DHT22;36542;51.700;8.846;2023-03-14T02:28:33;10.40;99.90
50586;DHT22;36542;51.700;8.846;2023-03-14T02:30:58;10.40;99.90
50586;DHT22;36542;51.700;8.846;2023-03-14T02:33:24;10.40;99.90
50586;DHT22;36542;51.700;8.846;2023-03-14T02:35:59;10.50;99.90
50586;DHT22;36542;51.700;8.846;2023-03-14T02:38:42;10.40;99.90
50586;DHT22;36542;51.700;8.846;2023-03-14T02:41:09;10.50;99.90
50586;DHT22;36542;51.700;8.846;2023-03-14T02:43:35;10.50;99.90
50586;DHT22;36542;51.700;8.846;2023-03-14T02:46:01;10.50;99.90
50586;DHT22;36542;51.700;8.846;2023-03-14T02:48:35;10.50;99.90
50586;DHT22;36542;51.700;8.846;2023-03-14T02:51:02;10.50;99.90
50586;DHT22;36542;51.700;8.846;2023-03-14T02:53:34;10.50;99.90
50586;DHT22;36542;51.700;8.846;2023-03-14T02:56:01;10.40;99.90
50586;DHT22;36542;51.700;8.846;2023-03-14T02:58:27;10.40;99.90
50586;DHT22;36542;51.700;8.846;2023-03-14T03:00:53;10.30;99.90
50586;DHT22;36542;51.700;8.846;2023-03-14T03:03:19;10.00;99.90
50586;DHT22;36542;51.700;8.846;2023-03-14T03:05:48;9.50;99.90
50586;DHT22;36542;51.700;8.846;2023-03-14T03:08:15;8.80;99.90
50586;DHT22;36542;51.700;8.846;2023-03-14T03:10:41;8.40;99.90
50586;DHT22;36542;51.700;8.846;2023-03-14T03:13:06;8.10;99.90
50586;DHT22;36542;51.700;8.846;2023-03-14T03:15:32;7.90;99.90
50586;DHT22;36542;51.700;8.846;2023-03-14T03:17:57;7.80;99.90
50586;DHT22;36542;51.700;8.846;2023-03-14T03:20:23;7.60;99.90
50586;DHT22;36542;51.700;8.846;2023-03-14T03:22:48;7.50;99.90
50586;DHT22;36542;51.700;8.846;2023-03-14T03:25:15;7.50;99.90
50586;DHT22;36542;51.700;8.846;2023-03-14T03:27:41;7.50;99.90
50586;DHT22;36542;51.700;8.846;2023-03-14T03:30:07;7.50;99.90
50586;DHT22;36542;51.700;8.846;2023-03-14T03:32:33;7.50;99.90
50586;DHT22;36542;51.700;8.846;2023-03-14T03:34:58;7.60;99.90
50586;DHT22;36542;51.700;8.846;2023-03-14T03:37:24;7.60;99.90
50586;DHT22;36542;51.700;8.846;2023-03-14T03:39:51;7.70;99.90
50586;DHT22;36542;51.700;8.846;2023-03-14T03:42:17;7.90;99.90
50586;DHT22;36542;51.700;8.846;2023-03-14T03:44:42;7.90;99.90
50586;DHT22;36542;51.700;8.846;2023-03-14T03:47:08;8.00;99.90
50586;DHT22;36542;51.700;8.846;2023-03-14T03:49:33;8.00;99.90
50586;DHT22;36542;51.700;8.846;2023-03-14T03:51:59;7.90;99.90
50586;DHT22;36542;51.700;8.846;2023-03-14T03:54:25;7.80;99.90
50586;DHT22;36542;51.700;8.846;2023-03-14T03:56:51;7.80;99.90
50586;DHT22;36542;51.700;8.846;2023-03-14T03:59:17;7.80;99.90
50586;DHT22;36542;51.700;8.846;2023-03-14T04:01:43;7.80;99.90
50586;DHT22;36542;51.700;8.846;2023-03-14T04:04:08;7.80;99.90
50586;DHT22;36542;51.700;8.846;2023-03-14T04:06:34;7.80;99.90
50586;DHT22;36542;51.700;8.846;2023-03-14T04:08:59;7.90;99.90
50586;DHT22;36542;51.700;8.846;2023-03-14T04:11:25;7.90;99.90
50586;DHT22;36542;51.700;8.846;2023-03-14T04:13:50;7.80;99.90
50586;DHT22;36542;51.700;8.846;2023-03-14T04:16:22;7.90;99.90
50586;DHT22;36542;51.700;8.846;2023-03-14T04:18:48;7.80;99.90
50586;DHT22;36542;51.700;8.846;2023-03-14T04:21:14;8.00;99.90
50586;DHT22;36542;51.700;8.846;2023-03-14T04:23:40;8.00;99.90
50586;DHT22;36542;51.700;8.846;2023-03-14T04:26:05;8.00;99.90
50586;DHT22;36542;51.700;8.846;2023-03-14T04:28:31;8.00;99.90
50586;DHT22;36542;51.700;8.846;2023-03-14T04:30:57;8.00;99.90
50586;DHT22;36542;51.700;8.846;2023-03-14T04:33:22;8.00;99.90
50586;DHT22;36542;51.700;8.846;2023-03-14T04:35:48;8.00;99.90
50586;DHT22;36542;51.700;8.846;2023-03-14T04:38:15;8.00;99.90
50586;DHT22;36542;51.700;8.846;2023-03-14T04:40:41;8.10;99.90
50586;DHT22;36542;51.700;8.846;2023-03-14T04:43:11;8.10;99.90
50586;DHT22;36542;51.700;8.846;2023-03-14T04:45:37;8.20;99.90
50586;DHT22;36542;51.700;8.846;2023-03-14T04:48:06;8.10;99.90
50586;DHT22;36542;51.700;8.846;2023-03-14T04:50:31;8.00;99.90
50586;DHT22;36542;51.700;8.846;2023-03-14T04:52:57;8.00;99.90
50586;DHT22;36542;51.700;8.846;2023-03-14T04:55:22;7.90;99.90
50586;DHT22;36542;51.700;8.846;2023-03-14T04:57:48;7.80;99.90
50586;DHT22;36542;51.700;8.846;2023-03-14T05:00:13;7.80;99.90
50586;DHT22;36542;51.700;8.846;2023-03-14T05:02:39;7.90;99.90
50586;DHT22;36542;51.700;8.846;2023-03-14T05:05:05;7.90;99.90
50586;DHT22;36542;51.700;8.846;2023-03-14T05:07:30;7.90;99.90
50586;DHT22;36542;51.700;8.846;2023-03-14T05:09:56;8.00;99.90
50586;DHT22;36542;51.700;8.846;2023-03-14T05:12:21;8.00;99.90
50586;DHT22;36542;51.700;8.846;2023-03-14T05:14:47;8.00;99.90
50586;DHT22;36542;51.700;8.846;2023-03-14T05:17:12;8.00;99.90
50586;DHT22;36542;51.700;8.846;2023-03-14T05:19:40;8.10;99.90
50586;DHT22;36542;51.700;8.846;2023-03-14T05:22:06;8.10;99.90
50586;DHT22;36542;51.700;8.846;2023-03-14T05:24:31;8.20;99.90
50586;DHT22;36542;51.700;8.846;2023-03-14T05:26:57;8.30;99.90
50586;DHT22;36542;51.700;8.846;2023-03-14T05:29:22;8.40;99.90
50586;DHT22;36542;51.700;8.846;2023-03-14T05:31:48;8.40;99.90
50586;DHT22;36542;51.700;8.846;2023-03-14T05:34:13;8.40;99.90
50586;DHT22;36542;51.700;8.846;2023-03-14T05:36:39;8.40;99.90
50586;DHT22;36542;51.700;8.846;2023-03-14T05:39:04;8.30;99.90
50586;DHT22;36542;51.700;8.846;2023-03-14T05:41:29;8.30;99.90
50586;DHT22;36542;51.700;8.846;2023-03-14T05:43:55;8.30;99.90
50586;DHT22;36542;51.700;8.846;2023-03-14T05:46:20;8.30;99.90
50586;DHT22;36542;51.700;8.846;2023-03-14T05:48:46;8.40;99.90
50586;DHT22;36542;51.700;8.846;2023-03-14T05:51:11;8.30;99.90
50586;DHT22;36542;51.700;8.846;2023-03-14T05:53:37;8.30;99.90
50586;DHT22;36542;51.700;8.846;2023-03-14T05:56:03;8.20;99.90
50586;DHT22;36542;51.700;8.846;2023-03-14T05:58:28;8.20;99.90
50586;DHT22;36542;51.700;8.846;2023-03-14T06:00:54;8.10;99.90
50586;DHT22;36542;51.700;8.846;2023-03-14T06:03:19;8.20;99.90
50586;DHT22;36542;51.700;8.846;2023-03-14T06:05:45;8.10;99.90
50586;DHT22;36542;51.700;8.846;2023-03-14T06:08:10;8.10;99.90
50586;DHT22;36542;51.700;8.846;2023-03-14T06:10:36;8.20;99.90
50586;DHT22;36542;51.700;8.846;2023-03-14T06:13:02;8.20;99.90
50586;DHT22;36542;51.700;8.846;2023-03-14T06:15:28;8.30;99.90
50586;DHT22;36542;51.700;8.846;2023-03-14T06:17:55;8.30;99.90
50586;DHT22;36542;51.700;8.846;2023-03-14T06:20:21;8.30;99.90
50586;DHT22;36542;51.700;8.846;2023-03-14T06:22:46;8.40;99.90
50586;DHT22;36542;51.700;8.846;2023-03-14T06:25:15;8.50;99.90
50586;DHT22;36542;51.700;8.846;2023-03-14T06:27:40;8.50;99.90
50586;DHT22;36542;51.700;8.846;2023-03-14T06:30:07;8.50;99.90
50586;DHT22;36542;51.700;8.846;2023-03-14T06:32:33;8.60;99.90
50586;DHT22;36542;51.700;8.846;2023-03-14T06:34:58;8.60;99.90
50586;DHT22;36542;51.700;8.846;2023-03-14T06:37:27;8.80;99.90
50586;DHT22;36542;51.700;8.846;2023-03-14T06:39:53;8.80;99.90
50586;DHT22;36542;51.700;8.846;2023-03-14T06:42:18;8.80;99.90
50586;DHT22;36542;51.700;8.846;2023-03-14T06:44:44;8.80;99.90
50586;DHT22;36542;51.700;8.846;2023-03-14T06:47:09;8.90;99.90
50586;DHT22;36542;51.700;8.846;2023-03-14T06:49:35;8.90;99.90
50586;DHT22;36542;51.700;8.846;2023-03-14T06:52:00;9.00;99.90
50586;DHT22;36542;51.700;8.846;2023-03-14T06:54:25;9.00;99.90
50586;DHT22;36542;51.700;8.846;2023-03-14T06:56:51;9.10;99.90
50586;DHT22;36542;51.700;8.846;2023-03-14T06:59:16;9.20;99.90
50586;DHT22;36542;51.700;8.846;2023-03-14T07:01:42;9.30;99.90
50586;DHT22;36542;51.700;8.846;2023-03-14T07:04:09;9.30;99.90
50586;DHT22;36542;51.700;8.846;2023-03-14T07:06:34;9.40;99.90
50586;DHT22;36542;51.700;8.846;2023-03-14T07:09:00;9.40;99.90
50586;DHT22;36542;51.700;8.846;2023-03-14T07:11:26;9.40;99.90
50586;DHT22;36542;51.700;8.846;2023-03-14T07:13:52;9.40;99.90
50586;DHT22;36542;51.700;8.846;2023-03-14T07:16:17;9.40;99.90
50586;DHT22;36542;51.700;8.846;2023-03-14T07:18:43;9.40;99.90
50586;DHT22;36542;51.700;8.846;2023-03-14T07:21:09;9.40;99.90
50586;DHT22;36542;51.700;8.846;2023-03-14T07:23:34;9.50;99.90
50586;DHT22;36542;51.700;8.846;2023-03-14T07:26:00;9.50;99.90
50586;DHT22;36542;51.700;8.846;2023-03-14T07:28:26;9.60;99.90
50586;DHT22;36542;51.700;8.846;2023-03-14T07:30:53;9.60;99.90
50586;DHT22;36542;51.700;8.846;2023-03-14T07:33:18;9.70;99.90
50586;DHT22;36542;51.700;8.846;2023-03-14T07:35:44;9.80;99.90
50586;DHT22;36542;51.700;8.846;2023-03-14T07:38:09;9.80;99.90
50586;DHT22;36542;51.700;8.846;2023-03-14T07:40:35;9.70;99.90
50586;DHT22;36542;51.700;8.846;2023-03-14T07:43:00;9.80;99.90
50586;DHT22;36542;51.700;8.846;2023-03-14T07:45:26;9.80;99.90
50586;DHT22;36542;51.700;8.846;2023-03-14T07:47:51;9.70;99.90
50586;DHT22;36542;51.700;8.846;2023-03-14T07:50:17;9.70;99.90
50586;DHT22;36542;51.700;8.846;2023-03-14T07:52:42;9.70;99.90
50586;DHT22;36542;51.700;8.846;2023-03-14T07:55:08;9.70;99.90
50586;DHT22;36542;51.700;8.846;2023-03-14T07:57:33;9.80;99.90
50586;DHT22;36542;51.700;8.846;2023-03-14T07:59:59;9.80;99.90
50586;DHT22;36542;51.700;8.846;2023-03-14T08:02:24;9.90;99.90
50586;DHT22;36542;51.700;8.846;2023-03-14T08:04:50;10.00;99.90
50586;DHT22;36542;51.700;8.846;2023-03-14T08:07:16;10.00;99.90
50586;DHT22;36542;51.700;8.846;2023-03-14T08:09:42;10.10;99.90
50586;DHT22;36542;51.700;8.846;2023-03-14T08:12:08;9.90;99.90
50586;DHT22;36542;51.700;8.846;2023-03-14T08:14:33;9.90;99.90
50586;DHT22;36542;51.700;8.846;2023-03-14T08:16:59;10.00;99.90
50586;DHT22;36542;51.700;8.846;2023-03-14T08:19:24;10.20;99.90
50586;DHT22;36542;51.700;8.846;2023-03-14T08:21:50;10.40;99.90
50586;DHT22;36542;51.700;8.846;2023-03-14T08:24:16;10.40;99.90
50586;DHT22;36542;51.700;8.846;2023-03-14T08:26:41;10.20;99.90
50586;DHT22;36542;51.700;8.846;2023-03-14T08:29:07;10.20;99.90
50586;DHT22;36542;51.700;8.846;2023-03-14T08:31:36;10.10;99.90
50586;DHT22;36542;51.700;8.846;2023-03-14T08:34:02;10.00;99.90
50586;DHT22;36542;51.700;8.846;2023-03-14T08:36:28;10.00;99.90
50586;DHT22;36542;51.700;8.846;2023-03-14T08:38:54;10.10;99.90
50586;DHT22;36542;51.700;8.846;2023-03-14T08:41:20;10.10;99.90
50586;DHT22;36542;51.700;8.846;2023-03-14T08:43:45;10.20;99.90
50586;DHT22;36542;51.700;8.846;2023-03-14T08:46:11;10.30;99.90
50586;DHT22;36542;51.700;8.846;2023-03-14T08:48:36;10.30;99.90
50586;DHT22;36542;51.700;8.846;2023-03-14T08:51:07;10.30;99.90
50586;DHT22;36542;51.700;8.846;2023-03-14T08:53:33;10.40;99.90
50586;DHT22;36542;51.700;8.846;2023-03-14T08:55:59;10.30;99.90
50586;DHT22;36542;51.700;8.846;2023-03-14T08:58:24;10.30;99.90
50586;DHT22;36542;51.700;8.846;2023-03-14T09:00:50;10.20;99.90
50586;DHT22;36542;51.700;8.846;2023-03-14T09:03:15;10.20;99.90
50586;DHT22;36542;51.700;8.846;2023-03-14T09:05:41;10.20;99.90
50586;DHT22;36542;51.700;8.846;2023-03-14T09:08:06;10.20;99.90
50586;DHT22;36542;51.700;8.846;2023-03-14T09:10:32;10.20;99.90
50586;DHT22;36542;51.700;8.846;2023-03-14T09:12:57;10.30;99.90
50586;DHT22;36542;51.700;8.846;2023-03-14T09:15:23;10.40;99.90
50586;DHT22;36542;51.700;8.846;2023-03-14T09:17:50;10.50;99.90
50586;DHT22;36542;51.700;8.846;2023-03-14T09:20:16;10.50;99.90
50586;DHT22;36542;51.700;8.846;2023-03-14T09:22:41;10.50;99.90
50586;DHT22;36542;51.700;8.846;2023-03-14T09:25:07;10.50;99.90
50586;DHT22;36542;51.700;8.846;2023-03-14T09:27:33;10.50;99.90
50586;DHT22;36542;51.700;8.846;2023-03-14T09:29:58;10.60;99.90
50586;DHT22;36542;51.700;8.846;2023-03-14T09:32:24;10.70;99.90
50586;DHT22;36542;51.700;8.846;2023-03-14T09:34:49;10.70;99.90
50586;DHT22;36542;51.700;8.846;2023-03-14T09:37:15;10.80;99.90
50586;DHT22;36542;51.700;8.846;2023-03-14T09:39:41;10.90;99.90
50586;DHT22;36542;51.700;8.846;2023-03-14T09:42:10;10.90;99.90
50586;DHT22;36542;51.700;8.846;2023-03-14T09:44:49;10.90;99.90
50586;DHT22;36542;51.700;8.846;2023-03-14T09:47:18;11.00;99.90
50586;DHT22;36542;51.700;8.846;2023-03-14T09:49:45;10.80;99.90
50586;DHT22;36542;51.700;8.846;2023-03-14T09:52:17;10.80;99.90
50586;DHT22;36542;51.700;8.846;2023-03-14T09:57:18;10.90;99.90
50586;DHT22;36542;51.700;8.846;2023-03-14T09:59:48;11.00;99.90
50586;DHT22;36542;51.700;8.846;2023-03-14T10:02:20;11.20;99.90
50586;DHT22;36542;51.700;8.846;2023-03-14T10:04:48;11.40;99.90
50586;DHT22;36542;51.700;8.846;2023-03-14T10:07:21;11.40;99.90
50586;DHT22;36542;51.700;8.846;2023-03-14T10:09:49;11.50;99.90
50586;DHT22;36542;51.700;8.846;2023-03-14T10:12:16;11.30;99.90
50586;DHT22;36542;51.700;8.846;2023-03-14T10:14:51;11.20;99.90
50586;DHT22;36542;51.700;8.846;2023-03-14T10:17:18;11.50;99.90
50586;DHT22;36542;51.700;8.846;2023-03-14T10:19:59;11.70;99.90
50586;DHT22;36542;51.700;8.846;2023-03-14T10:22:30;11.50;99.90
50586;DHT22;36542;51.700;8.846;2023-03-14T10:25:02;11.30;99.90
50586;DHT22;36542;51.700;8.846;2023-03-14T10:27:31;11.20;99.90
50586;DHT22;36542;51.700;8.846;2023-03-14T10:30:03;11.20;99.90
50586;DHT22;36542;51.700;8.846;2023-03-14T10:32:37;11.20;99.90
50586;DHT22;36542;51.700;8.846;2023-03-14T10:37:53;10.60;99.90
50586;DHT22;36542;51.700;8.846;2023-03-14T10:40:32;10.50;99.90
50586;DHT22;36542;51.700;8.846;2023-03-14T10:42:59;10.70;99.90
50586;DHT22;36542;51.700;8.846;2023-03-14T10:45:33;10.90;99.90
50586;DHT22;36542;51.700;8.846;2023-03-14T10:48:06;10.80;99.90
50586;DHT22;36542;51.700;8.846;2023-03-14T10:50:33;10.60;99.90
50586;DHT22;36542;51.700;8.846;2023-03-14T10:53:01;10.50;99.90
50586;DHT22;36542;51.700;8.846;2023-03-14T10:55:43;10.30;99.90
50586;DHT22;36542;51.700;8.846;2023-03-14T10:58:22;10.20;99.90
50586;DHT22;36542;51.700;8.846;2023-03-14T11:03:42;10.20;99.90
50586;DHT22;36542;51.700;8.846;2023-03-14T11:06:21;10.10;99.90
50586;DHT22;36542;51.700;8.846;2023-03-14T11:11:46;9.50;99.90
50586;DHT22;36542;51.700;8.846;2023-03-14T11:14:20;8.70;99.90
50586;DHT22;36542;51.700;8.846;2023-03-14T11:17:02;8.40;99.90
50586;DHT22;36542;51.700;8.846;2023-03-14T11:22:55;8.20;99.90
50586;DHT22;36542;51.700;8.846;2023-03-14T11:25:42;7.90;99.90
50586;DHT22;36542;51.700;8.846;2023-03-14T11:28:18;7.70;99.90
50586;DHT22;36542;51.700;8.846;2023-03-14T11:30:53;7.60;99.90
50586;DHT22;36542;51.700;8.846;2023-03-14T11:33:38;7.50;99.90
50586;DHT22;36542;51.700;8.846;2023-03-14T11:36:08;7.40;99.90
50586;DHT22;36542;51.700;8.846;2023-03-14T11:38:49;7.20;99.90
50586;DHT22;36542;51.700;8.846;2023-03-14T11:41:22;7.10;99.90
50586;DHT22;36542;51.700;8.846;2023-03-14T11:43:54;7.00;99.90
50586;DHT22;36542;51.700;8.846;2023-03-14T11:46:33;7.00;99.90
50586;DHT22;36542;51.700;8.846;2023-03-14T11:51:39;7.00;99.90
50586;DHT22;36542;51.700;8.846;2023-03-14T11:54:33;7.00;99.90
50586;DHT22;36542;51.700;8.846;2023-03-14T11:57:05;7.00;99.90
50586;DHT22;36542;51.700;8.846;2023-03-14T12:02:33;6.50;99.90
50586;DHT22;36542;51.700;8.846;2023-03-14T12:13:28;5.50;99.90
50586;DHT22;36542;51.700;8.846;2023-03-14T12:15:59;5.60;99.90
50586;DHT22;36542;51.700;8.846;2023-03-14T12:18:31;5.40;99.90
50586;DHT22;36542;51.700;8.846;2023-03-14T12:21:03;5.00;99.90
50586;DHT22;36542;51.700;8.846;2023-03-14T12:23:53;4.80;99.90
50586;DHT22;36542;51.700;8.846;2023-03-14T12:26:22;4.80;99.90
50586;DHT22;36542;51.700;8.846;2023-03-14T12:41:48;3.70;99.90
50586;DHT22;36542;51.700;8.846;2023-03-14T12:46:56;3.60;99.90
50586;DHT22;36542;51.700;8.846;2023-03-14T12:49:29;3.50;99.90
50586;DHT22;36542;51.700;8.846;2023-03-14T12:52:02;3.50;99.90
50586;DHT22;36542;51.700;8.846;2023-03-14T12:54:42;3.60;99.90
50586;DHT22;36542;51.700;8.846;2023-03-14T12:57:36;3.70;99.90
50586;DHT22;36542;51.700;8.846;2023-03-14T13:00:20;3.70;99.90
50586;DHT22;36542;51.700;8.846;2023-03-14T13:02:47;3.90;99.90
50586;DHT22;36542;51.700;8.846;2023-03-14T13:05:24;3.90;99.90
50586;DHT22;36542;51.700;8.846;2023-03-14T13:10:27;4.00;99.90
50586;DHT22;36542;51.700;8.846;2023-03-14T13:13:01;4.00;99.90
50586;DHT22;36542;51.700;8.846;2023-03-14T13:15:47;4.10;99.90
50586;DHT22;36542;51.700;8.846;2023-03-14T13:18:35;4.20;99.90
50586;DHT22;36542;51.700;8.846;2023-03-14T13:21:15;4.30;99.90
50586;DHT22;36542;51.700;8.846;2023-03-14T13:26:19;4.50;99.90
50586;DHT22;36542;51.700;8.846;2023-03-14T13:28:44;4.60;99.90
50586;DHT22;36542;51.700;8.846;2023-03-14T13:31:21;4.60;99.90
50586;DHT22;36542;51.700;8.846;2023-03-14T13:33:46;4.60;99.90
50586;DHT22;36542;51.700;8.846;2023-03-14T13:36:12;4.60;99.90
50586;DHT22;36542;51.700;8.846;2023-03-14T13:38:37;4.60;99.90
50586;DHT22;36542;51.700;8.846;2023-03-14T13:41:07;4.60;99.90
50586;DHT22;36542;51.700;8.846;2023-03-14T13:43:41;4.60;99.90
50586;DHT22;36542;51.700;8.846;2023-03-14T13:46:16;4.50;99.90
50586;DHT22;36542;51.700;8.846;2023-03-14T13:48:47;4.50;99.90
50586;DHT22;36542;51.700;8.846;2023-03-14T13:51:15;4.50;99.90
50586;DHT22;36542;51.700;8.846;2023-03-14T13:53:49;4.50;99.90
50586;DHT22;36542;51.700;8.846;2023-03-14T13:56:17;4.50;99.90
50586;DHT22;36542;51.700;8.846;2023-03-14T13:58:43;4.50;99.90
50586;DHT22;36542;51.700;8.846;2023-03-14T14:01:32;4.50;99.90
50586;DHT22;36542;51.700;8.846;2023-03-14T14:04:02;4.60;99.90
50586;DHT22;36542;51.700;8.846;2023-03-14T14:06:38;4.50;99.90
50586;DHT22;36542;51.700;8.846;2023-03-14T14:09:17;4.50;99.90
50586;DHT22;36542;51.700;8.846;2023-03-14T14:11:48;4.30;99.90
50586;DHT22;36542;51.700;8.846;2023-03-14T14:14:28;3.60;99.90
50586;DHT22;36542;51.700;8.846;2023-03-14T14:16:54;3.60;99.90
50586;DHT22;36542;51.700;8.846;2023-03-14T14:19:22;3.60;99.90
50586;DHT22;36542;51.700;8.846;2023-03-14T14:21:49;3.70;99.90
50586;DHT22;36542;51.700;8.846;2023-03-14T14:24:16;3.80;99.90
50586;DHT22;36542;51.700;8.846;2023-03-14T14:26:47;3.80;99.90
50586;DHT22;36542;51.700;8.846;2023-03-14T14:37:28;4.20;99.90
50586;DHT22;36542;51.700;8.846;2023-03-14T14:40:00;4.30;99.90
50586;DHT22;36542;51.700;8.846;2023-03-14T14:42:30;4.40;99.90
50586;DHT22;36542;51.700;8.846;2023-03-14T14:44:57;4.50;99.90
50586;DHT22;36542;51.700;8.846;2023-03-14T14:47:25;4.50;99.90
50586;DHT22;36542;51.700;8.846;2023-03-14T14:49:53;4.60;99.90
50586;DHT22;36542;51.700;8.846;2023-03-14T14:52:30;4.70;99.90
50586;DHT22;36542;51.700;8.846;2023-03-14T14:55:00;4.70;99.90
50586;DHT22;36542;51.700;8.846;2023-03-14T14:57:28;4.60;99.90
50586;DHT22;36542;51.700;8.846;2023-03-14T15:00:00;4.60;99.90
50586;DHT22;36542;51.700;8.846;2023-03-14T15:02:36;4.60;99.90
50586;DHT22;36542;51.700;8.846;2023-03-14T15:05:05;4.60;99.90
50586;DHT22;36542;51.700;8.846;2023-03-14T15:07:31;4.70;99.90
50586;DHT22;36542;51.700;8.846;2023-03-14T15:09:56;4.60;99.90
50586;DHT22;36542;51.700;8.846;2023-03-14T15:12:22;4.80;99.90
50586;DHT22;36542;51.700;8.846;2023-03-14T15:14:50;4.80;99.90
50586;DHT22;36542;51.700;8.846;2023-03-14T15:17:15;4.90;99.90
50586;DHT22;36542;51.700;8.846;2023-03-14T15:19:41;4.90;99.90
50586;DHT22;36542;51.700;8.846;2023-03-14T15:22:12;4.90;99.90
50586;DHT22;36542;51.700;8.846;2023-03-14T15:24:38;4.90;99.90
50586;DHT22;36542;51.700;8.846;2023-03-14T15:27:08;4.90;99.90
50586;DHT22;36542;51.700;8.846;2023-03-14T15:29:35;4.80;99.90
50586;DHT22;36542;51.700;8.846;2023-03-14T15:32:02;4.80;99.90
50586;DHT22;36542;51.700;8.846;2023-03-14T15:34:27;4.80;99.90
50586;DHT22;36542;51.700;8.846;2023-03-14T15:36:53;4.70;99.90
50586;DHT22;36542;51.700;8.846;2023-03-14T15:39:18;4.70;99.90
50586;DHT22;36542;51.700;8.846;2023-03-14T15:41:44;4.70;99.90
50586;DHT22;36542;51.700;8.846;2023-03-14T15:44:09;4.70;99.90
50586;DHT22;36542;51.700;8.846;2023-03-14T15:46:35;4.70;99.90
50586;DHT22;36542;51.700;8.846;2023-03-14T15:49:00;4.60;99.90
50586;DHT22;36542;51.700;8.846;2023-03-14T15:51:26;4.60;99.90
50586;DHT22;36542;51.700;8.846;2023-03-14T15:53:51;4.60;99.90
50586;DHT22;36542;51.700;8.846;2023-03-14T15:56:19;4.70;99.90
50586;DHT22;36542;51.700;8.846;2023-03-14T15:58:45;4.70;99.90
50586;DHT22;36542;51.700;8.846;2023-03-14T16:01:15;4.70;99.90
50586;DHT22;36542;51.700;8.846;2023-03-14T16:03:44;4.70;99.90
50586;DHT22;36542;51.700;8.846;2023-03-14T16:06:10;4.60;99.90
50586;DHT22;36542;51.700;8.846;2023-03-14T16:08:36;4.60;99.90
50586;DHT22;36542;51.700;8.846;2023-03-14T16:11:01;4.60;99.90
50586;DHT22;36542;51.700;8.846;2023-03-14T16:13:27;4.50;99.90
50586;DHT22;36542;51.700;8.846;2023-03-14T16:16:00;4.50;99.90
50586;DHT22;36542;51.700;8.846;2023-03-14T16:18:31;4.50;99.90
50586;DHT22;36542;51.700;8.846;2023-03-14T16:20:59;4.50;99.90
50586;DHT22;36542;51.700;8.846;2023-03-14T16:23:26;4.40;99.90
50586;DHT22;36542;51.700;8.846;2023-03-14T16:25:52;4.40;99.90
50586;DHT22;36542;51.700;8.846;2023-03-14T16:28:18;4.40;99.90
50586;DHT22;36542;51.700;8.846;2023-03-14T16:30:43;4.30;99.90
50586;DHT22;36542;51.700;8.846;2023-03-14T16:33:09;4.30;99.90
50586;DHT22;36542;51.700;8.846;2023-03-14T16:35:41;4.30;99.90
50586;DHT22;36542;51.700;8.846;2023-03-14T16:38:08;4.30;99.90
50586;DHT22;36542;51.700;8.846;2023-03-14T16:40:33;4.30;99.90
50586;DHT22;36542;51.700;8.846;2023-03-14T16:42:59;4.40;99.90
50586;DHT22;36542;51.700;8.846;2023-03-14T16:45:24;4.30;99.90
50586;DHT22;36542;51.700;8.846;2023-03-14T16:47:50;4.30;99.90